sensor_id;sensor_type;location;lat;lon;timestamp;P1;durP1;ratioP1;P2;durP2;ratioP2
8104;SDS011;4095;48.942;9.104;2023-02-12T00:00:31;29.83;;;23.97;;
8104;SDS011;4095;48.942;9.104;2023-02-12T00:02:57;29.87;;;24.67;;
8104;SDS011;4095;48.942;9.104;2023-02-12T00:05:22;27.53;;;23.87;;
8104;SDS011;4095;48.942;9.104;2023-02-12T00:07:48;27.10;;;23.07;;
8104;SDS011;4095;48.942;9.104;2023-02-12T00:10:14;29.17;;;24.33;;
8104;SDS011;4095;48.942;9.104;2023-02-12T00:12:40;28.93;;;24.67;;
8104;SDS011;4095;48.942;9.104;2023-02-12T00:15:05;30.97;;;24.33;;
8104;SDS011;4095;48.942;9.104;2023-02-12T00:17:31;32.70;;;26.47;;
8104;SDS011;4095;48.942;9.104;2023-02-12T00:19:57;33.50;;;26.53;;
8104;SDS011;4095;48.942;9.104;2023-02-12T00:22:23;31.37;;;25.30;;
8104;SDS011;4095;48.942;9.104;2023-02-12T00:24:48;31.80;;;26.07;;
8104;SDS011;4095;48.942;9.104;2023-02-12T00:27:14;34.23;;;27.17;;
8104;SDS011;4095;48.942;9.104;2023-02-12T00:29:39;31.70;;;25.97;;
8104;SDS011;4095;48.942;9.104;2023-02-12T00:32:05;36.57;;;27.30;;
8104;SDS011;4095;48.942;9.104;2023-02-12T00:34:31;34.37;;;26.27;;
8104;SDS011;4095;48.942;9.104;2023-02-12T00:36:57;33.30;;;27.37;;
8104;SDS011;4095;48.942;9.104;2023-02-12T00:39:22;33.37;;;27.10;;
8104;SDS011;4095;48.942;9.104;2023-02-12T00:41:48;31.63;;;26.07;;
8104;SDS011;4095;48.942;9.104;2023-02-12T00:44:14;33.43;;;26.57;;
8104;SDS011;4095;48.942;9.104;2023-02-12T00:46:39;32.73;;;27.27;;
8104;SDS011;4095;48.942;9.104;2023-02-12T00:49:05;34.60;;;28.07;;
8104;SDS011;4095;48.942;9.104;2023-02-12T00:51:30;34.43;;;27.90;;
8104;SDS011;4095;48.942;9.104;2023-02-12T00:53:56;33.90;;;27.83;;
8104;SDS011;4095;48.942;9.104;2023-02-12T00:56:22;33.13;;;27.67;;
8104;SDS011;4095;48.942;9.104;2023-02-12T00:58:47;36.40;;;28.70;;
8104;SDS011;4095;48.942;9.104;2023-02-12T01:01:13;34.53;;;27.57;;
8104;SDS011;4095;48.942;9.104;2023-02-12T01:03:38;33.40;;;27.17;;
8104;SDS011;4095;48.942;9.104;2023-02-12T01:06:04;31.40;;;26.73;;
8104;SDS011;4095;48.942;9.104;2023-02-12T01:08:30;32.50;;;27.10;;
8104;SDS011;4095;48.942;9.104;2023-02-12T01:11:00;33.07;;;25.90;;
8104;SDS011;4095;48.942;9.104;2023-02-12T01:13:28;34.90;;;26.33;;
8104;SDS011;4095;48.942;9.104;2023-02-12T01:16:08;33.87;;;27.40;;
8104;SDS011;4095;48.942;9.104;2023-02-12T01:18:36;33.10;;;27.77;;
8104;SDS011;4095;48.942;9.104;2023-02-12T01:21:07;35.03;;;28.20;;
8104;SDS011;4095;48.942;9.104;2023-02-12T01:23:37;32.03;;;26.40;;
8104;SDS011;4095;48.942;9.104;2023-02-12T01:26:03;33.33;;;27.60;;
8104;SDS011;4095;48.942;9.104;2023-02-12T01:28:29;34.00;;;27.23;;
8104;SDS011;4095;48.942;9.104;2023-02-12T01:30:54;33.40;;;27.50;;
8104;SDS011;4095;48.942;9.104;2023-02-12T01:33:20;34.73;;;28.00;;
8104;SDS011;4095;48.942;9.104;2023-02-12T01:35:45;32.97;;;27.43;;
8104;SDS011;4095;48.942;9.104;2023-02-12T01:38:11;36.27;;;27.60;;
8104;SDS011;4095;48.942;9.104;2023-02-12T01:40:36;33.83;;;28.03;;
8104;SDS011;4095;48.942;9.104;2023-02-12T01:43:02;33.07;;;26.90;;
8104;SDS011;4095;48.942;9.104;2023-02-12T01:45:37;34.23;;;27.47;;
8104;SDS011;4095;48.942;9.104;2023-02-12T01:48:12;33.80;;;27.23;;
8104;SDS011;4095;48.942;9.104;2023-02-12T01:50:41;32.13;;;27.73;;
8104;SDS011;4095;48.942;9.104;2023-02-12T01:53:08;34.43;;;27.93;;
8104;SDS011;4095;48.942;9.104;2023-02-12T01:55:34;35.13;;;28.27;;
8104;SDS011;4095;48.942;9.104;2023-02-12T01:57:59;34.40;;;27.17;;
8104;SDS011;4095;48.942;9.104;2023-02-12T02:00:26;33.83;;;27.47;;
8104;SDS011;4095;48.942;9.104;2023-02-12T02:02:53;32.97;;;27.73;;
8104;SDS011;4095;48.942;9.104;2023-02-12T02:06:09;33.77;;;27.97;;
8104;SDS011;4095;48.942;9.104;2023-02-12T02:08:15;32.43;;;27.77;;
8104;SDS011;4095;48.942;9.104;2023-02-12T02:10:41;31.13;;;26.50;;
8104;SDS011;4095;48.942;9.104;2023-02-12T02:13:07;35.07;;;27.20;;
8104;SDS011;4095;48.942;9.104;2023-02-12T02:15:53;34.77;;;28.50;;
8104;SDS011;4095;48.942;9.104;2023-02-12T02:18:45;34.83;;;27.37;;
8104;SDS011;4095;48.942;9.104;2023-02-12T02:21:18;31.90;;;26.93;;
8104;SDS011;4095;48.942;9.104;2023-02-12T02:30:05;33.10;;;27.00;;
8104;SDS011;4095;48.942;9.104;2023-02-12T02:33:18;30.93;;;26.23;;
8104;SDS011;4095;48.942;9.104;2023-02-12T02:35:36;31.77;;;26.13;;
8104;SDS011;4095;48.942;9.104;2023-02-12T02:40:52;34.33;;;26.37;;
8104;SDS011;4095;48.942;9.104;2023-02-12T02:43:28;30.73;;;26.67;;
8104;SDS011;4095;48.942;9.104;2023-02-12T02:46:16;32.07;;;27.13;;
8104;SDS011;4095;48.942;9.104;2023-02-12T02:48:51;29.47;;;25.53;;
8104;SDS011;4095;48.942;9.104;2023-02-12T02:51:22;30.30;;;25.50;;
8104;SDS011;4095;48.942;9.104;2023-02-12T02:54:20;29.30;;;25.67;;
8104;SDS011;4095;48.942;9.104;2023-02-12T02:56:54;30.03;;;25.70;;
8104;SDS011;4095;48.942;9.104;2023-02-12T02:59:28;30.30;;;25.97;;
8104;SDS011;4095;48.942;9.104;2023-02-12T03:02:05;28.57;;;25.33;;
8104;SDS011;4095;48.942;9.104;2023-02-12T03:04:57;29.23;;;25.57;;
8104;SDS011;4095;48.942;9.104;2023-02-12T03:10:40;28.80;;;25.17;;
8104;SDS011;4095;48.942;9.104;2023-02-12T03:13:56;31.80;;;26.60;;
8104;SDS011;4095;48.942;9.104;2023-02-12T03:19:20;31.63;;;25.77;;
8104;SDS011;4095;48.942;9.104;2023-02-12T03:24:18;32.90;;;27.23;;
8104;SDS011;4095;48.942;9.104;2023-02-12T03:26:50;32.83;;;26.57;;
8104;SDS011;4095;48.942;9.104;2023-02-12T03:29:19;34.77;;;28.07;;
8104;SDS011;4095;48.942;9.104;2023-02-12T03:39:34;33.57;;;27.67;;
8104;SDS011;4095;48.942;9.104;2023-02-12T03:45:09;35.00;;;27.90;;
8104;SDS011;4095;48.942;9.104;2023-02-12T03:47:50;35.63;;;28.77;;
8104;SDS011;4095;48.942;9.104;2023-02-12T03:53:10;32.53;;;26.77;;
8104;SDS011;4095;48.942;9.104;2023-02-12T03:55:36;33.13;;;27.37;;
8104;SDS011;4095;48.942;9.104;2023-02-12T03:58:07;32.67;;;26.97;;
8104;SDS011;4095;48.942;9.104;2023-02-12T04:00:36;30.87;;;26.87;;
8104;SDS011;4095;48.942;9.104;2023-02-12T04:03:03;32.33;;;27.33;;
8104;SDS011;4095;48.942;9.104;2023-02-12T04:05:30;31.10;;;26.07;;
8104;SDS011;4095;48.942;9.104;2023-02-12T04:07:55;31.50;;;26.50;;
8104;SDS011;4095;48.942;9.104;2023-02-12T04:10:30;32.63;;;26.37;;
8104;SDS011;4095;48.942;9.104;2023-02-12T04:13:18;31.30;;;26.50;;
8104;SDS011;4095;48.942;9.104;2023-02-12T04:16:04;33.97;;;26.63;;
8104;SDS011;4095;48.942;9.104;2023-02-12T04:18:44;34.07;;;26.60;;
8104;SDS011;4095;48.942;9.104;2023-02-12T04:24:31;33.67;;;27.90;;
8104;SDS011;4095;48.942;9.104;2023-02-12T04:27:15;34.63;;;28.20;;
8104;SDS011;4095;48.942;9.104;2023-02-12T04:29:56;29.40;;;24.43;;
8104;SDS011;4095;48.942;9.104;2023-02-12T04:32:27;32.30;;;26.33;;
8104;SDS011;4095;48.942;9.104;2023-02-12T04:37:45;31.80;;;26.37;;
8104;SDS011;4095;48.942;9.104;2023-02-12T04:40:20;36.53;;;26.93;;
8104;SDS011;4095;48.942;9.104;2023-02-12T04:42:48;33.43;;;26.77;;
8104;SDS011;4095;48.942;9.104;2023-02-12T04:45:23;31.93;;;26.77;;
8104;SDS011;4095;48.942;9.104;2023-02-12T04:47:55;31.73;;;26.70;;
8104;SDS011;4095;48.942;9.104;2023-02-12T04:50:21;32.00;;;26.53;;
8104;SDS011;4095;48.942;9.104;2023-02-12T04:52:47;32.87;;;27.23;;
8104;SDS011;4095;48.942;9.104;2023-02-12T04:55:12;32.30;;;27.40;;
8104;SDS011;4095;48.942;9.104;2023-02-12T04:57:38;35.27;;;27.80;;
8104;SDS011;4095;48.942;9.104;2023-02-12T05:00:04;34.33;;;26.60;;
8104;SDS011;4095;48.942;9.104;2023-02-12T05:02:34;35.27;;;27.00;;
8104;SDS011;4095;48.942;9.104;2023-02-12T05:05:00;32.90;;;26.17;;
8104;SDS011;4095;48.942;9.104;2023-02-12T05:07:25;34.03;;;26.70;;
8104;SDS011;4095;48.942;9.104;2023-02-12T05:09:51;32.10;;;27.07;;
8104;SDS011;4095;48.942;9.104;2023-02-12T05:12:16;31.77;;;26.30;;
8104;SDS011;4095;48.942;9.104;2023-02-12T05:14:42;34.83;;;27.17;;
8104;SDS011;4095;48.942;9.104;2023-02-12T05:17:08;33.40;;;26.67;;
8104;SDS011;4095;48.942;9.104;2023-02-12T05:19:33;31.47;;;26.40;;
8104;SDS011;4095;48.942;9.104;2023-02-12T05:21:59;32.23;;;26.63;;
8104;SDS011;4095;48.942;9.104;2023-02-12T05:24:24;33.20;;;27.07;;
8104;SDS011;4095;48.942;9.104;2023-02-12T05:26:50;34.63;;;27.10;;
8104;SDS011;4095;48.942;9.104;2023-02-12T05:29:16;31.63;;;26.77;;
8104;SDS011;4095;48.942;9.104;2023-02-12T05:31:42;31.60;;;26.70;;
8104;SDS011;4095;48.942;9.104;2023-02-12T05:34:08;31.80;;;26.37;;
8104;SDS011;4095;48.942;9.104;2023-02-12T05:36:35;31.10;;;25.90;;
8104;SDS011;4095;48.942;9.104;2023-02-12T05:39:01;31.47;;;26.17;;
8104;SDS011;4095;48.942;9.104;2023-02-12T05:41:27;31.33;;;27.20;;
8104;SDS011;4095;48.942;9.104;2023-02-12T05:43:53;31.57;;;26.27;;
8104;SDS011;4095;48.942;9.104;2023-02-12T05:46:20;31.63;;;25.77;;
8104;SDS011;4095;48.942;9.104;2023-02-12T05:48:46;31.97;;;26.47;;
8104;SDS011;4095;48.942;9.104;2023-02-12T05:51:16;29.53;;;26.00;;
8104;SDS011;4095;48.942;9.104;2023-02-12T05:53:46;30.13;;;25.40;;
8104;SDS011;4095;48.942;9.104;2023-02-12T05:56:14;31.20;;;26.20;;
8104;SDS011;4095;48.942;9.104;2023-02-12T05:58:45;32.10;;;26.73;;
8104;SDS011;4095;48.942;9.104;2023-02-12T06:01:14;30.87;;;26.57;;
8104;SDS011;4095;48.942;9.104;2023-02-12T06:03:44;32.27;;;26.23;;
8104;SDS011;4095;48.942;9.104;2023-02-12T06:06:10;32.13;;;27.57;;
8104;SDS011;4095;48.942;9.104;2023-02-12T06:08:36;32.50;;;27.07;;
8104;SDS011;4095;48.942;9.104;2023-02-12T06:11:03;33.93;;;27.50;;
8104;SDS011;4095;48.942;9.104;2023-02-12T06:13:30;31.97;;;26.00;;
8104;SDS011;4095;48.942;9.104;2023-02-12T06:15:57;31.83;;;27.67;;
8104;SDS011;4095;48.942;9.104;2023-02-12T06:18:22;29.93;;;26.43;;
8104;SDS011;4095;48.942;9.104;2023-02-12T06:20:48;32.93;;;26.27;;
8104;SDS011;4095;48.942;9.104;2023-02-12T06:23:14;33.10;;;26.30;;
8104;SDS011;4095;48.942;9.104;2023-02-12T06:25:39;30.27;;;25.37;;
8104;SDS011;4095;48.942;9.104;2023-02-12T06:28:05;32.97;;;26.73;;
8104;SDS011;4095;48.942;9.104;2023-02-12T06:30:32;30.87;;;25.87;;
8104;SDS011;4095;48.942;9.104;2023-02-12T06:32:58;31.47;;;25.23;;
8104;SDS011;4095;48.942;9.104;2023-02-12T06:35:24;31.20;;;26.17;;
8104;SDS011;4095;48.942;9.104;2023-02-12T06:37:49;30.03;;;26.40;;
8104;SDS011;4095;48.942;9.104;2023-02-12T06:40:15;32.77;;;26.23;;
8104;SDS011;4095;48.942;9.104;2023-02-12T06:42:41;30.93;;;26.23;;
8104;SDS011;4095;48.942;9.104;2023-02-12T06:45:06;31.83;;;26.23;;
8104;SDS011;4095;48.942;9.104;2023-02-12T06:47:32;31.00;;;26.80;;
8104;SDS011;4095;48.942;9.104;2023-02-12T06:49:58;31.07;;;26.07;;
8104;SDS011;4095;48.942;9.104;2023-02-12T06:52:23;33.30;;;26.23;;
8104;SDS011;4095;48.942;9.104;2023-02-12T06:54:49;30.17;;;25.07;;
8104;SDS011;4095;48.942;9.104;2023-02-12T06:57:15;30.90;;;26.10;;
8104;SDS011;4095;48.942;9.104;2023-02-12T06:59:40;30.20;;;26.53;;
8104;SDS011;4095;48.942;9.104;2023-02-12T07:02:06;30.90;;;26.33;;
8104;SDS011;4095;48.942;9.104;2023-02-12T07:04:33;33.70;;;26.90;;
8104;SDS011;4095;48.942;9.104;2023-02-12T07:06:58;31.03;;;27.07;;
8104;SDS011;4095;48.942;9.104;2023-02-12T07:09:24;34.07;;;28.03;;
8104;SDS011;4095;48.942;9.104;2023-02-12T07:11:51;33.37;;;27.00;;
8104;SDS011;4095;48.942;9.104;2023-02-12T07:14:16;33.70;;;27.77;;
8104;SDS011;4095;48.942;9.104;2023-02-12T07:16:42;32.67;;;27.87;;
8104;SDS011;4095;48.942;9.104;2023-02-12T07:19:08;33.43;;;28.13;;
8104;SDS011;4095;48.942;9.104;2023-02-12T07:21:37;30.90;;;26.40;;
8104;SDS011;4095;48.942;9.104;2023-02-12T07:24:02;31.47;;;26.67;;
8104;SDS011;4095;48.942;9.104;2023-02-12T07:26:28;30.80;;;25.97;;
8104;SDS011;4095;48.942;9.104;2023-02-12T07:28:55;34.17;;;28.20;;
8104;SDS011;4095;48.942;9.104;2023-02-12T07:31:21;32.83;;;26.80;;
8104;SDS011;4095;48.942;9.104;2023-02-12T07:33:48;32.37;;;28.33;;
8104;SDS011;4095;48.942;9.104;2023-02-12T07:36:18;32.30;;;27.10;;
8104;SDS011;4095;48.942;9.104;2023-02-12T07:38:44;35.87;;;28.73;;
8104;SDS011;4095;48.942;9.104;2023-02-12T07:41:11;33.30;;;27.80;;
8104;SDS011;4095;48.942;9.104;2023-02-12T07:43:38;31.80;;;27.43;;
8104;SDS011;4095;48.942;9.104;2023-02-12T07:46:05;33.00;;;28.17;;
8104;SDS011;4095;48.942;9.104;2023-02-12T07:48:35;33.63;;;27.53;;
8104;SDS011;4095;48.942;9.104;2023-02-12T07:51:08;32.43;;;26.93;;
8104;SDS011;4095;48.942;9.104;2023-02-12T07:53:35;31.27;;;26.23;;
8104;SDS011;4095;48.942;9.104;2023-02-12T07:56:12;33.13;;;27.17;;
8104;SDS011;4095;48.942;9.104;2023-02-12T07:58:40;31.27;;;27.53;;
8104;SDS011;4095;48.942;9.104;2023-02-12T08:01:25;33.63;;;27.33;;
8104;SDS011;4095;48.942;9.104;2023-02-12T08:04:00;31.63;;;26.57;;
8104;SDS011;4095;48.942;9.104;2023-02-12T08:06:31;32.07;;;28.00;;
8104;SDS011;4095;48.942;9.104;2023-02-12T08:09:01;33.37;;;27.33;;
8104;SDS011;4095;48.942;9.104;2023-02-12T08:11:29;33.33;;;27.53;;
8104;SDS011;4095;48.942;9.104;2023-02-12T08:13:56;33.10;;;27.27;;
8104;SDS011;4095;48.942;9.104;2023-02-12T08:16:22;31.73;;;27.70;;
8104;SDS011;4095;48.942;9.104;2023-02-12T08:18:49;32.70;;;27.07;;
8104;SDS011;4095;48.942;9.104;2023-02-12T08:21:19;32.43;;;27.77;;
8104;SDS011;4095;48.942;9.104;2023-02-12T08:23:46;33.50;;;27.70;;
8104;SDS011;4095;48.942;9.104;2023-02-12T08:26:19;34.60;;;27.97;;
8104;SDS011;4095;48.942;9.104;2023-02-12T08:28:48;33.10;;;28.47;;
8104;SDS011;4095;48.942;9.104;2023-02-12T08:31:17;32.17;;;27.60;;
8104;SDS011;4095;48.942;9.104;2023-02-12T08:33:46;32.57;;;26.70;;
8104;SDS011;4095;48.942;9.104;2023-02-12T08:36:14;34.63;;;28.43;;
8104;SDS011;4095;48.942;9.104;2023-02-12T08:38:42;32.20;;;28.43;;
8104;SDS011;4095;48.942;9.104;2023-02-12T08:41:10;34.73;;;28.80;;
8104;SDS011;4095;48.942;9.104;2023-02-12T08:43:41;34.20;;;28.07;;
8104;SDS011;4095;48.942;9.104;2023-02-12T08:46:08;35.07;;;28.57;;
8104;SDS011;4095;48.942;9.104;2023-02-12T08:48:36;34.17;;;29.03;;
8104;SDS011;4095;48.942;9.104;2023-02-12T08:51:03;35.83;;;29.13;;
8104;SDS011;4095;48.942;9.104;2023-02-12T08:53:39;34.43;;;28.80;;
8104;SDS011;4095;48.942;9.104;2023-02-12T08:56:06;35.60;;;29.63;;
8104;SDS011;4095;48.942;9.104;2023-02-12T08:58:33;36.67;;;29.40;;
8104;SDS011;4095;48.942;9.104;2023-02-12T09:00:58;35.90;;;29.03;;
8104;SDS011;4095;48.942;9.104;2023-02-12T09:03:24;33.87;;;28.53;;
8104;SDS011;4095;48.942;9.104;2023-02-12T09:05:50;36.00;;;28.77;;
8104;SDS011;4095;48.942;9.104;2023-02-12T09:08:16;37.23;;;29.40;;
8104;SDS011;4095;48.942;9.104;2023-02-12T09:10:41;33.60;;;28.67;;
8104;SDS011;4095;48.942;9.104;2023-02-12T09:13:08;34.83;;;30.10;;
8104;SDS011;4095;48.942;9.104;2023-02-12T09:15:35;38.17;;;30.90;;
8104;SDS011;4095;48.942;9.104;2023-02-12T09:18:06;35.23;;;30.50;;
8104;SDS011;4095;48.942;9.104;2023-02-12T09:20:32;38.57;;;31.07;;
8104;SDS011;4095;48.942;9.104;2023-02-12T09:23:00;38.60;;;31.87;;
8104;SDS011;4095;48.942;9.104;2023-02-12T09:25:26;36.03;;;31.23;;
8104;SDS011;4095;48.942;9.104;2023-02-12T09:27:51;38.50;;;32.00;;
8104;SDS011;4095;48.942;9.104;2023-02-12T09:30:18;39.07;;;32.50;;
8104;SDS011;4095;48.942;9.104;2023-02-12T09:32:44;36.83;;;31.97;;
8104;SDS011;4095;48.942;9.104;2023-02-12T09:35:09;36.50;;;31.57;;
8104;SDS011;4095;48.942;9.104;2023-02-12T09:37:38;40.03;;;31.80;;
8104;SDS011;4095;48.942;9.104;2023-02-12T09:40:05;38.20;;;31.53;;
8104;SDS011;4095;48.942;9.104;2023-02-12T09:42:45;40.57;;;31.17;;
8104;SDS011;4095;48.942;9.104;2023-02-12T09:45:42;37.33;;;30.47;;
8104;SDS011;4095;48.942;9.104;2023-02-12T09:48:17;37.63;;;29.93;;
8104;SDS011;4095;48.942;9.104;2023-02-12T09:50:56;35.07;;;29.50;;
8104;SDS011;4095;48.942;9.104;2023-02-12T09:53:25;37.00;;;29.90;;
8104;SDS011;4095;48.942;9.104;2023-02-12T09:55:53;35.57;;;30.03;;
8104;SDS011;4095;48.942;9.104;2023-02-12T09:58:32;34.13;;;29.63;;
8104;SDS011;4095;48.942;9.104;2023-02-12T10:01:15;36.17;;;29.13;;
8104;SDS011;4095;48.942;9.104;2023-02-12T10:03:43;34.77;;;28.63;;
8104;SDS011;4095;48.942;9.104;2023-02-12T10:09:09;32.97;;;27.37;;
8104;SDS011;4095;48.942;9.104;2023-02-12T10:17:22;36.17;;;27.37;;
8104;SDS011;4095;48.942;9.104;2023-02-12T10:23:16;30.80;;;25.60;;
8104;SDS011;4095;48.942;9.104;2023-02-12T10:28:52;32.20;;;26.50;;
8104;SDS011;4095;48.942;9.104;2023-02-12T10:31:30;30.60;;;25.57;;
8104;SDS011;4095;48.942;9.104;2023-02-12T10:33:59;31.83;;;26.27;;
8104;SDS011;4095;48.942;9.104;2023-02-12T10:41:40;26.13;;;21.67;;
8104;SDS011;4095;48.942;9.104;2023-02-12T10:44:10;22.73;;;19.40;;
8104;SDS011;4095;48.942;9.104;2023-02-12T10:46:36;23.27;;;20.23;;
8104;SDS011;4095;48.942;9.104;2023-02-12T10:49:02;24.23;;;20.47;;
8104;SDS011;4095;48.942;9.104;2023-02-12T10:56:57;21.03;;;17.77;;
8104;SDS011;4095;48.942;9.104;2023-02-12T10:59:28;19.40;;;16.53;;
8104;SDS011;4095;48.942;9.104;2023-02-12T11:01:54;204.40;;;149.73;;
8104;SDS011;4095;48.942;9.104;2023-02-12T11:06:57;20.40;;;17.27;;
8104;SDS011;4095;48.942;9.104;2023-02-12T11:09:38;17.57;;;13.83;;
8104;SDS011;4095;48.942;9.104;2023-02-12T11:14:51;15.17;;;12.73;;
8104;SDS011;4095;48.942;9.104;2023-02-12T11:17:24;14.80;;;11.87;;
8104;SDS011;4095;48.942;9.104;2023-02-12T11:20:33;14.03;;;11.90;;
8104;SDS011;4095;48.942;9.104;2023-02-12T11:22:57;10.10;;;8.23;;
8104;SDS011;4095;48.942;9.104;2023-02-12T11:25:27;16.07;;;13.10;;
8104;SDS011;4095;48.942;9.104;2023-02-12T11:30:32;10.07;;;7.50;;
8104;SDS011;4095;48.942;9.104;2023-02-12T11:33:40;10.00;;;7.43;;
8104;SDS011;4095;48.942;9.104;2023-02-12T11:35:50;7.80;;;6.83;;
8104;SDS011;4095;48.942;9.104;2023-02-12T11:38:26;8.93;;;7.37;;
8104;SDS011;4095;48.942;9.104;2023-02-12T11:40:55;8.47;;;7.07;;
8104;SDS011;4095;48.942;9.104;2023-02-12T11:43:23;8.70;;;7.13;;
8104;SDS011;4095;48.942;9.104;2023-02-12T11:45:51;9.50;;;7.50;;
8104;SDS011;4095;48.942;9.104;2023-02-12T11:48:30;8.60;;;7.17;;
8104;SDS011;4095;48.942;9.104;2023-02-12T11:50:58;6.77;;;6.07;;
8104;SDS011;4095;48.942;9.104;2023-02-12T11:53:34;7.87;;;6.07;;
8104;SDS011;4095;48.942;9.104;2023-02-12T11:56:06;7.80;;;6.67;;
8104;SDS011;4095;48.942;9.104;2023-02-12T11:58:34;11.17;;;9.63;;
8104;SDS011;4095;48.942;9.104;2023-02-12T12:09:10;7.03;;;5.70;;
8104;SDS011;4095;48.942;9.104;2023-02-12T12:12:19;7.50;;;6.30;;
8104;SDS011;4095;48.942;9.104;2023-02-12T12:14:47;6.50;;;5.63;;
8104;SDS011;4095;48.942;9.104;2023-02-12T12:20:31;6.50;;;5.77;;
8104;SDS011;4095;48.942;9.104;2023-02-12T12:23:10;6.40;;;5.50;;
8104;SDS011;4095;48.942;9.104;2023-02-12T12:25:44;6.60;;;5.63;;
8104;SDS011;4095;48.942;9.104;2023-02-12T12:28:25;6.00;;;5.40;;
8104;SDS011;4095;48.942;9.104;2023-02-12T12:30:58;6.37;;;5.33;;
8104;SDS011;4095;48.942;9.104;2023-02-12T12:41:26;5.80;;;4.97;;
8104;SDS011;4095;48.942;9.104;2023-02-12T12:49:55;5.57;;;3.93;;
8104;SDS011;4095;48.942;9.104;2023-02-12T12:52:35;5.17;;;4.67;;
8104;SDS011;4095;48.942;9.104;2023-02-12T12:55:13;5.67;;;4.70;;
8104;SDS011;4095;48.942;9.104;2023-02-12T12:58:08;6.10;;;4.93;;
8104;SDS011;4095;48.942;9.104;2023-02-12T13:03:24;5.20;;;4.50;;
8104;SDS011;4095;48.942;9.104;2023-02-12T13:16:59;5.57;;;4.87;;
8104;SDS011;4095;48.942;9.104;2023-02-12T13:24:41;5.00;;;4.50;;
8104;SDS011;4095;48.942;9.104;2023-02-12T13:27:19;4.90;;;4.37;;
8104;SDS011;4095;48.942;9.104;2023-02-12T13:29:50;4.00;;;3.60;;
8104;SDS011;4095;48.942;9.104;2023-02-12T13:32:22;4.13;;;3.73;;
8104;SDS011;4095;48.942;9.104;2023-02-12T13:34:52;6.23;;;4.17;;
8104;SDS011;4095;48.942;9.104;2023-02-12T13:37:21;4.13;;;3.73;;
8104;SDS011;4095;48.942;9.104;2023-02-12T13:40:06;4.27;;;3.70;;
8104;SDS011;4095;48.942;9.104;2023-02-12T13:42:42;4.70;;;3.40;;
8104;SDS011;4095;48.942;9.104;2023-02-12T13:54:10;4.20;;;3.63;;
8104;SDS011;4095;48.942;9.104;2023-02-12T13:56:57;4.60;;;3.97;;
8104;SDS011;4095;48.942;9.104;2023-02-12T14:02:05;4.50;;;3.93;;
8104;SDS011;4095;48.942;9.104;2023-02-12T14:04:59;4.17;;;3.77;;
8104;SDS011;4095;48.942;9.104;2023-02-12T14:07:46;4.40;;;4.00;;
8104;SDS011;4095;48.942;9.104;2023-02-12T14:10:27;5.33;;;4.27;;
8104;SDS011;4095;48.942;9.104;2023-02-12T14:13:08;5.37;;;4.20;;
8104;SDS011;4095;48.942;9.104;2023-02-12T14:15:47;5.93;;;4.93;;
8104;SDS011;4095;48.942;9.104;2023-02-12T14:23:37;5.97;;;5.17;;
8104;SDS011;4095;48.942;9.104;2023-02-12T14:33:51;7.57;;;5.43;;
8104;SDS011;4095;48.942;9.104;2023-02-12T14:36:37;5.70;;;5.10;;
8104;SDS011;4095;48.942;9.104;2023-02-12T14:41:44;5.97;;;5.00;;
8104;SDS011;4095;48.942;9.104;2023-02-12T14:49:17;5.10;;;4.40;;
8104;SDS011;4095;48.942;9.104;2023-02-12T14:51:57;5.87;;;4.40;;
8104;SDS011;4095;48.942;9.104;2023-02-12T14:57:26;4.70;;;4.10;;
8104;SDS011;4095;48.942;9.104;2023-02-12T15:02:30;5.03;;;4.17;;
8104;SDS011;4095;48.942;9.104;2023-02-12T15:05:03;5.53;;;4.13;;
8104;SDS011;4095;48.942;9.104;2023-02-12T15:07:42;4.60;;;4.20;;
8104;SDS011;4095;48.942;9.104;2023-02-12T15:10:19;4.10;;;3.70;;
8104;SDS011;4095;48.942;9.104;2023-02-12T15:15:38;5.33;;;4.37;;
8104;SDS011;4095;48.942;9.104;2023-02-12T15:18:13;4.23;;;3.83;;
8104;SDS011;4095;48.942;9.104;2023-02-12T15:23:47;4.20;;;3.80;;
8104;SDS011;4095;48.942;9.104;2023-02-12T15:26:48;4.70;;;4.10;;
8104;SDS011;4095;48.942;9.104;2023-02-12T15:29:20;6.47;;;4.73;;
8104;SDS011;4095;48.942;9.104;2023-02-12T15:31:51;4.70;;;4.20;;
8104;SDS011;4095;48.942;9.104;2023-02-12T15:34:20;5.00;;;4.40;;
8104;SDS011;4095;48.942;9.104;2023-02-12T15:36:48;5.70;;;4.60;;
8104;SDS011;4095;48.942;9.104;2023-02-12T15:39:18;5.33;;;4.83;;
8104;SDS011;4095;48.942;9.104;2023-02-12T15:41:46;5.23;;;4.73;;
8104;SDS011;4095;48.942;9.104;2023-02-12T15:46:55;4.00;;;3.60;;
8104;SDS011;4095;48.942;9.104;2023-02-12T15:49:36;3.90;;;3.50;;
8104;SDS011;4095;48.942;9.104;2023-02-12T15:52:25;4.50;;;3.93;;
8104;SDS011;4095;48.942;9.104;2023-02-12T15:54:58;5.63;;;4.27;;
8104;SDS011;4095;48.942;9.104;2023-02-12T15:57:24;5.00;;;4.00;;
8104;SDS011;4095;48.942;9.104;2023-02-12T15:59:51;4.23;;;3.83;;
8104;SDS011;4095;48.942;9.104;2023-02-12T16:02:29;3.73;;;3.33;;
8104;SDS011;4095;48.942;9.104;2023-02-12T16:04:57;6.20;;;4.07;;
8104;SDS011;4095;48.942;9.104;2023-02-12T16:07:24;5.00;;;4.40;;
8104;SDS011;4095;48.942;9.104;2023-02-12T16:09:53;5.00;;;3.63;;
8104;SDS011;4095;48.942;9.104;2023-02-12T16:12:23;4.67;;;3.77;;
8104;SDS011;4095;48.942;9.104;2023-02-12T16:14:55;4.53;;;4.03;;
8104;SDS011;4095;48.942;9.104;2023-02-12T16:19:56;4.50;;;3.60;;
8104;SDS011;4095;48.942;9.104;2023-02-12T16:22:41;4.70;;;4.00;;
8104;SDS011;4095;48.942;9.104;2023-02-12T16:25:30;4.03;;;3.63;;
8104;SDS011;4095;48.942;9.104;2023-02-12T16:28:16;4.40;;;3.80;;
8104;SDS011;4095;48.942;9.104;2023-02-12T16:30:50;5.07;;;3.80;;
8104;SDS011;4095;48.942;9.104;2023-02-12T16:36:06;4.03;;;3.50;;
8104;SDS011;4095;48.942;9.104;2023-02-12T16:39:02;3.87;;;3.30;;
8104;SDS011;4095;48.942;9.104;2023-02-12T16:41:30;4.07;;;3.60;;
8104;SDS011;4095;48.942;9.104;2023-02-12T16:46:58;5.97;;;4.30;;
8104;SDS011;4095;48.942;9.104;2023-02-12T16:49:28;5.77;;;4.37;;
8104;SDS011;4095;48.942;9.104;2023-02-12T16:52:06;5.27;;;4.60;;
8104;SDS011;4095;48.942;9.104;2023-02-12T16:54:43;8.50;;;5.57;;
8104;SDS011;4095;48.942;9.104;2023-02-12T16:57:08;16.67;;;10.30;;
8104;SDS011;4095;48.942;9.104;2023-02-12T16:59:35;9.80;;;6.57;;
8104;SDS011;4095;48.942;9.104;2023-02-12T17:02:09;7.80;;;5.70;;
8104;SDS011;4095;48.942;9.104;2023-02-12T17:04:36;8.10;;;5.80;;
8104;SDS011;4095;48.942;9.104;2023-02-12T17:07:02;7.83;;;5.00;;
8104;SDS011;4095;48.942;9.104;2023-02-12T17:09:27;7.53;;;4.83;;
8104;SDS011;4095;48.942;9.104;2023-02-12T17:11:54;9.77;;;5.20;;
8104;SDS011;4095;48.942;9.104;2023-02-12T17:14:20;9.63;;;5.33;;
8104;SDS011;4095;48.942;9.104;2023-02-12T17:16:46;7.03;;;4.77;;
8104;SDS011;4095;48.942;9.104;2023-02-12T17:19:12;6.17;;;5.20;;
8104;SDS011;4095;48.942;9.104;2023-02-12T17:21:38;6.53;;;5.10;;
8104;SDS011;4095;48.942;9.104;2023-02-12T17:24:17;7.70;;;5.93;;
8104;SDS011;4095;48.942;9.104;2023-02-12T17:26:49;8.07;;;5.57;;
8104;SDS011;4095;48.942;9.104;2023-02-12T17:29:19;8.00;;;5.60;;
8104;SDS011;4095;48.942;9.104;2023-02-12T17:31:46;6.43;;;5.40;;
8104;SDS011;4095;48.942;9.104;2023-02-12T17:34:17;6.70;;;5.30;;
8104;SDS011;4095;48.942;9.104;2023-02-12T17:36:43;6.63;;;5.30;;
8104;SDS011;4095;48.942;9.104;2023-02-12T17:39:10;7.87;;;5.73;;
8104;SDS011;4095;48.942;9.104;2023-02-12T17:41:36;7.37;;;5.57;;
8104;SDS011;4095;48.942;9.104;2023-02-12T17:44:03;7.83;;;5.80;;
8104;SDS011;4095;48.942;9.104;2023-02-12T17:46:29;7.27;;;5.90;;
8104;SDS011;4095;48.942;9.104;2023-02-12T17:48:55;6.87;;;5.20;;
8104;SDS011;4095;48.942;9.104;2023-02-12T17:51:21;7.67;;;6.13;;
8104;SDS011;4095;48.942;9.104;2023-02-12T17:53:48;7.43;;;5.70;;
8104;SDS011;4095;48.942;9.104;2023-02-12T17:56:15;7.77;;;6.50;;
8104;SDS011;4095;48.942;9.104;2023-02-12T17:58:44;9.50;;;5.80;;
8104;SDS011;4095;48.942;9.104;2023-02-12T18:01:12;9.63;;;6.57;;
8104;SDS011;4095;48.942;9.104;2023-02-12T18:03:40;11.47;;;6.73;;
8104;SDS011;4095;48.942;9.104;2023-02-12T18:06:07;10.90;;;7.57;;